sensor_id;sensor_type;location;lat;lon;timestamp;pressure;altitude;pressure_sealevel;temperature;humidity
46241;BME280;31961;52.416;-0.732;2023-04-06T00:00:15;100514.79;;;5.20;100.00
46241;BME280;31961;52.416;-0.732;2023-04-06T00:02:42;100511.97;;;5.05;100.00
46241;BME280;31961;52.416;-0.732;2023-04-06T00:05:09;100508.64;;;4.82;100.00
46241;BME280;31961;52.416;-0.732;2023-04-06T00:07:36;100510.55;;;5.21;100.00
46241;BME280;31961;52.416;-0.732;2023-04-06T00:10:05;100510.20;;;4.43;100.00
46241;BME280;31961;52.416;-0.732;2023-04-06T00:12:32;100504.04;;;5.12;100.00
46241;BME280;31961;52.416;-0.732;2023-04-06T00:14:59;100500.29;;;5.17;100.00
46241;BME280;31961;52.416;-0.732;2023-04-06T00:17:27;100493.82;;;5.12;100.00
46241;BME280;31961;52.416;-0.732;2023-04-06T00:19:54;100492.86;;;4.64;100.00
46241;BME280;31961;52.416;-0.732;2023-04-06T00:22:22;100491.43;;;5.18;100.00
46241;BME280;31961;52.416;-0.732;2023-04-06T00:24:49;100489.68;;;5.00;100.00
46241;BME280;31961;52.416;-0.732;2023-04-06T00:27:17;100479.80;;;6.12;100.00
46241;BME280;31961;52.416;-0.732;2023-04-06T00:29:44;100479.10;;;5.43;100.00
46241;BME280;31961;52.416;-0.732;2023-04-06T00:32:11;100481.98;;;5.43;100.00
46241;BME280;31961;52.416;-0.732;2023-04-06T00:34:38;100480.87;;;5.37;100.00
46241;BME280;31961;52.416;-0.732;2023-04-06T00:37:06;100474.56;;;5.59;100.00
46241;BME280;31961;52.416;-0.732;2023-04-06T00:39:33;100471.49;;;5.45;100.00
46241;BME280;31961;52.416;-0.732;2023-04-06T00:42:06;100467.15;;;5.42;100.00
46241;BME280;31961;52.416;-0.732;2023-04-06T00:44:34;100463.36;;;5.98;100.00
46241;BME280;31961;52.416;-0.732;2023-04-06T00:47:01;100459.81;;;5.62;100.00
46241;BME280;31961;52.416;-0.732;2023-04-06T00:49:29;100462.54;;;5.01;100.00
46241;BME280;31961;52.416;-0.732;2023-04-06T00:51:56;100455.97;;;5.47;100.00
46241;BME280;31961;52.416;-0.732;2023-04-06T00:54:23;100451.61;;;5.17;100.00
46241;BME280;31961;52.416;-0.732;2023-04-06T00:56:51;100444.18;;;5.85;100.00
46241;BME280;31961;52.416;-0.732;2023-04-06T00:59:18;100442.04;;;5.62;100.00
46241;BME280;31961;52.416;-0.732;2023-04-06T01:01:45;100443.21;;;5.45;100.00
46241;BME280;31961;52.416;-0.732;2023-04-06T01:04:12;100437.54;;;5.18;100.00
46241;BME280;31961;52.416;-0.732;2023-04-06T01:06:39;100434.60;;;5.68;100.00
46241;BME280;31961;52.416;-0.732;2023-04-06T01:09:07;100426.48;;;6.26;100.00
46241;BME280;31961;52.416;-0.732;2023-04-06T01:11:36;100427.50;;;5.37;100.00
46241;BME280;31961;52.416;-0.732;2023-04-06T01:14:03;100425.24;;;5.44;100.00
46241;BME280;31961;52.416;-0.732;2023-04-06T01:16:30;100421.95;;;5.55;100.00
46241;BME280;31961;52.416;-0.732;2023-04-06T01:18:58;100419.55;;;5.75;100.00
46241;BME280;31961;52.416;-0.732;2023-04-06T01:21:25;100417.32;;;5.50;100.00
46241;BME280;31961;52.416;-0.732;2023-04-06T01:23:52;100418.06;;;5.26;100.00
46241;BME280;31961;52.416;-0.732;2023-04-06T01:26:19;100413.75;;;4.76;100.00
46241;BME280;31961;52.416;-0.732;2023-04-06T01:28:46;100412.85;;;4.91;100.00
46241;BME280;31961;52.416;-0.732;2023-04-06T01:31:14;100409.38;;;5.10;100.00
46241;BME280;31961;52.416;-0.732;2023-04-06T01:33:41;100406.44;;;4.65;100.00
46241;BME280;31961;52.416;-0.732;2023-04-06T01:36:09;100405.73;;;5.09;100.00
46241;BME280;31961;52.416;-0.732;2023-04-06T01:38:37;100401.53;;;4.95;100.00
46241;BME280;31961;52.416;-0.732;2023-04-06T01:41:04;100396.57;;;4.90;100.00
46241;BME280;31961;52.416;-0.732;2023-04-06T01:43:32;100392.32;;;5.07;100.00
46241;BME280;31961;52.416;-0.732;2023-04-06T01:46:00;100385.51;;;5.53;100.00
46241;BME280;31961;52.416;-0.732;2023-04-06T01:48:27;100388.38;;;5.45;100.00
46241;BME280;31961;52.416;-0.732;2023-04-06T01:50:54;100380.71;;;4.69;100.00
46241;BME280;31961;52.416;-0.732;2023-04-06T01:53:21;100381.03;;;5.36;100.00
46241;BME280;31961;52.416;-0.732;2023-04-06T01:55:49;100375.00;;;4.68;100.00
46241;BME280;31961;52.416;-0.732;2023-04-06T01:58:17;100374.56;;;5.57;100.00
46241;BME280;31961;52.416;-0.732;2023-04-06T02:00:44;100365.79;;;5.66;100.00
46241;BME280;31961;52.416;-0.732;2023-04-06T02:03:12;100366.33;;;4.94;100.00
46241;BME280;31961;52.416;-0.732;2023-04-06T02:05:39;100364.07;;;5.23;100.00
46241;BME280;31961;52.416;-0.732;2023-04-06T02:08:07;100361.73;;;4.58;100.00
46241;BME280;31961;52.416;-0.732;2023-04-06T02:10:35;100359.70;;;4.77;100.00
46241;BME280;31961;52.416;-0.732;2023-04-06T02:13:02;100356.91;;;4.98;100.00
46241;BME280;31961;52.416;-0.732;2023-04-06T02:15:29;100353.52;;;5.57;100.00
46241;BME280;31961;52.416;-0.732;2023-04-06T02:17:58;100347.14;;;5.38;100.00
46241;BME280;31961;52.416;-0.732;2023-04-06T02:20:25;100352.44;;;4.98;100.00
46241;BME280;31961;52.416;-0.732;2023-04-06T02:22:53;100351.22;;;5.39;100.00
46241;BME280;31961;52.416;-0.732;2023-04-06T02:25:20;100348.09;;;4.99;100.00
46241;BME280;31961;52.416;-0.732;2023-04-06T02:27:47;100345.71;;;5.41;100.00
46241;BME280;31961;52.416;-0.732;2023-04-06T02:30:15;100336.51;;;6.51;100.00
46241;BME280;31961;52.416;-0.732;2023-04-06T02:32:42;100334.48;;;6.64;100.00
46241;BME280;31961;52.416;-0.732;2023-04-06T02:35:10;100330.30;;;5.60;100.00
46241;BME280;31961;52.416;-0.732;2023-04-06T02:37:37;100333.66;;;4.79;100.00
46241;BME280;31961;52.416;-0.732;2023-04-06T02:40:05;100334.42;;;4.93;100.00
46241;BME280;31961;52.416;-0.732;2023-04-06T02:42:33;100333.58;;;4.62;100.00
46241;BME280;31961;52.416;-0.732;2023-04-06T02:45:01;100334.74;;;4.65;100.00
46241;BME280;31961;52.416;-0.732;2023-04-06T02:47:28;100326.64;;;6.00;100.00
46241;BME280;31961;52.416;-0.732;2023-04-06T02:49:55;100325.47;;;5.01;100.00
46241;BME280;31961;52.416;-0.732;2023-04-06T02:52:22;100322.13;;;5.49;100.00
46241;BME280;31961;52.416;-0.732;2023-04-06T02:54:50;100318.27;;;5.14;100.00
46241;BME280;31961;52.416;-0.732;2023-04-06T02:57:17;100314.90;;;4.97;100.00
46241;BME280;31961;52.416;-0.732;2023-04-06T02:59:45;100309.20;;;5.37;100.00
46241;BME280;31961;52.416;-0.732;2023-04-06T03:02:12;100301.98;;;6.05;100.00
46241;BME280;31961;52.416;-0.732;2023-04-06T03:04:40;100299.61;;;5.94;100.00
46241;BME280;31961;52.416;-0.732;2023-04-06T03:07:07;100301.95;;;6.32;100.00
46241;BME280;31961;52.416;-0.732;2023-04-06T03:09:37;100296.72;;;6.08;100.00
46241;BME280;31961;52.416;-0.732;2023-04-06T03:12:04;100293.54;;;5.81;100.00
46241;BME280;31961;52.416;-0.732;2023-04-06T03:14:31;100292.09;;;6.37;100.00
46241;BME280;31961;52.416;-0.732;2023-04-06T03:16:59;100293.83;;;6.81;100.00
46241;BME280;31961;52.416;-0.732;2023-04-06T03:19:26;100287.75;;;6.07;100.00
46241;BME280;31961;52.416;-0.732;2023-04-06T03:21:54;100287.46;;;6.57;100.00
46241;BME280;31961;52.416;-0.732;2023-04-06T03:24:21;100279.49;;;6.41;100.00
46241;BME280;31961;52.416;-0.732;2023-04-06T03:26:49;100278.17;;;5.65;100.00
46241;BME280;31961;52.416;-0.732;2023-04-06T03:29:16;100279.89;;;5.14;100.00
46241;BME280;31961;52.416;-0.732;2023-04-06T03:31:44;100271.69;;;5.80;100.00
46241;BME280;31961;52.416;-0.732;2023-04-06T03:34:11;100265.51;;;5.89;100.00
46241;BME280;31961;52.416;-0.732;2023-04-06T03:36:38;100260.69;;;6.13;100.00
46241;BME280;31961;52.416;-0.732;2023-04-06T03:39:06;100259.97;;;6.25;100.00
46241;BME280;31961;52.416;-0.732;2023-04-06T03:41:33;100264.97;;;6.31;100.00
46241;BME280;31961;52.416;-0.732;2023-04-06T03:44:00;100258.64;;;5.63;100.00
46241;BME280;31961;52.416;-0.732;2023-04-06T03:46:28;100257.90;;;5.89;100.00
46241;BME280;31961;52.416;-0.732;2023-04-06T03:48:55;100255.05;;;5.08;100.00
46241;BME280;31961;52.416;-0.732;2023-04-06T03:51:23;100259.96;;;5.59;100.00
46241;BME280;31961;52.416;-0.732;2023-04-06T03:53:51;100257.22;;;5.08;100.00
46241;BME280;31961;52.416;-0.732;2023-04-06T03:56:18;100253.54;;;5.53;100.00
46241;BME280;31961;52.416;-0.732;2023-04-06T03:58:46;100249.16;;;5.48;100.00
46241;BME280;31961;52.416;-0.732;2023-04-06T04:01:13;100251.46;;;5.40;100.00
46241;BME280;31961;52.416;-0.732;2023-04-06T04:03:40;100248.45;;;5.92;100.00
46241;BME280;31961;52.416;-0.732;2023-04-06T04:06:07;100251.11;;;5.11;100.00
46241;BME280;31961;52.416;-0.732;2023-04-06T04:08:34;100254.14;;;5.86;100.00
46241;BME280;31961;52.416;-0.732;2023-04-06T04:11:02;100251.14;;;5.19;100.00
46241;BME280;31961;52.416;-0.732;2023-04-06T04:13:29;100250.61;;;5.02;100.00
46241;BME280;31961;52.416;-0.732;2023-04-06T04:15:56;100244.15;;;5.46;100.00
46241;BME280;31961;52.416;-0.732;2023-04-06T04:18:23;100236.72;;;5.79;100.00
46241;BME280;31961;52.416;-0.732;2023-04-06T04:20:50;100232.32;;;5.98;100.00
46241;BME280;31961;52.416;-0.732;2023-04-06T04:23:18;100235.89;;;5.52;100.00
46241;BME280;31961;52.416;-0.732;2023-04-06T04:25:45;100234.52;;;5.22;100.00
46241;BME280;31961;52.416;-0.732;2023-04-06T04:28:13;100230.97;;;5.68;100.00
46241;BME280;31961;52.416;-0.732;2023-04-06T04:30:40;100225.60;;;5.68;100.00
46241;BME280;31961;52.416;-0.732;2023-04-06T04:33:07;100229.65;;;5.04;100.00
46241;BME280;31961;52.416;-0.732;2023-04-06T04:35:34;100233.59;;;5.58;100.00
46241;BME280;31961;52.416;-0.732;2023-04-06T04:38:01;100223.81;;;5.90;100.00
46241;BME280;31961;52.416;-0.732;2023-04-06T04:40:28;100221.78;;;6.37;100.00
46241;BME280;31961;52.416;-0.732;2023-04-06T04:42:56;100222.15;;;5.83;100.00
46241;BME280;31961;52.416;-0.732;2023-04-06T04:45:23;100219.71;;;5.89;100.00
46241;BME280;31961;52.416;-0.732;2023-04-06T04:47:51;100217.62;;;5.62;100.00
46241;BME280;31961;52.416;-0.732;2023-04-06T04:50:18;100226.05;;;5.92;100.00
46241;BME280;31961;52.416;-0.732;2023-04-06T04:52:45;100230.20;;;5.75;100.00
46241;BME280;31961;52.416;-0.732;2023-04-06T04:55:13;100228.71;;;5.83;100.00
46241;BME280;31961;52.416;-0.732;2023-04-06T04:57:40;100224.69;;;6.15;100.00
46241;BME280;31961;52.416;-0.732;2023-04-06T05:00:09;100225.68;;;6.04;100.00
46241;BME280;31961;52.416;-0.732;2023-04-06T05:02:36;100227.97;;;5.73;100.00
46241;BME280;31961;52.416;-0.732;2023-04-06T05:05:04;100229.34;;;5.42;100.00
46241;BME280;31961;52.416;-0.732;2023-04-06T05:07:31;100231.00;;;5.14;100.00
46241;BME280;31961;52.416;-0.732;2023-04-06T05:09:59;100232.15;;;5.74;100.00
46241;BME280;31961;52.416;-0.732;2023-04-06T05:12:26;100231.08;;;5.99;100.00
46241;BME280;31961;52.416;-0.732;2023-04-06T05:14:53;100227.65;;;5.61;100.00
46241;BME280;31961;52.416;-0.732;2023-04-06T05:17:21;100224.75;;;6.03;100.00
46241;BME280;31961;52.416;-0.732;2023-04-06T05:19:48;100218.38;;;5.98;100.00
46241;BME280;31961;52.416;-0.732;2023-04-06T05:22:16;100211.97;;;5.89;100.00
46241;BME280;31961;52.416;-0.732;2023-04-06T05:24:43;100210.88;;;6.52;100.00
46241;BME280;31961;52.416;-0.732;2023-04-06T05:27:10;100209.11;;;6.50;100.00
46241;BME280;31961;52.416;-0.732;2023-04-06T05:29:37;100208.09;;;6.45;100.00
46241;BME280;31961;52.416;-0.732;2023-04-06T05:32:05;100209.57;;;5.73;100.00
46241;BME280;31961;52.416;-0.732;2023-04-06T05:34:32;100212.48;;;6.73;100.00
46241;BME280;31961;52.416;-0.732;2023-04-06T05:37:01;100211.91;;;6.84;100.00
46241;BME280;31961;52.416;-0.732;2023-04-06T05:39:28;100211.93;;;6.00;100.00
46241;BME280;31961;52.416;-0.732;2023-04-06T05:41:56;100208.76;;;6.58;100.00
46241;BME280;31961;52.416;-0.732;2023-04-06T05:44:23;100213.51;;;6.27;100.00
46241;BME280;31961;52.416;-0.732;2023-04-06T05:46:50;100220.37;;;6.47;100.00
46241;BME280;31961;52.416;-0.732;2023-04-06T05:49:17;100223.70;;;5.63;100.00
46241;BME280;31961;52.416;-0.732;2023-04-06T05:51:45;100227.16;;;6.07;100.00
46241;BME280;31961;52.416;-0.732;2023-04-06T05:54:12;100244.13;;;5.93;100.00
46241;BME280;31961;52.416;-0.732;2023-04-06T05:56:39;100241.26;;;5.15;100.00
46241;BME280;31961;52.416;-0.732;2023-04-06T05:59:06;100237.79;;;5.37;100.00
46241;BME280;31961;52.416;-0.732;2023-04-06T06:01:34;100253.36;;;5.41;100.00
46241;BME280;31961;52.416;-0.732;2023-04-06T06:04:01;100249.31;;;5.16;100.00
46241;BME280;31961;52.416;-0.732;2023-04-06T06:06:29;100248.37;;;5.58;100.00
46241;BME280;31961;52.416;-0.732;2023-04-06T06:08:57;100248.39;;;5.69;100.00
46241;BME280;31961;52.416;-0.732;2023-04-06T06:11:24;100246.11;;;5.36;100.00
46241;BME280;31961;52.416;-0.732;2023-04-06T06:13:51;100245.43;;;5.20;100.00
46241;BME280;31961;52.416;-0.732;2023-04-06T06:16:19;100234.19;;;5.79;100.00
46241;BME280;31961;52.416;-0.732;2023-04-06T06:18:46;100223.68;;;5.61;100.00
46241;BME280;31961;52.416;-0.732;2023-04-06T06:21:14;100230.88;;;5.36;100.00
46241;BME280;31961;52.416;-0.732;2023-04-06T06:23:42;100223.65;;;5.45;100.00
46241;BME280;31961;52.416;-0.732;2023-04-06T06:26:10;100226.12;;;5.06;100.00
46241;BME280;31961;52.416;-0.732;2023-04-06T06:28:37;100219.47;;;5.81;100.00
46241;BME280;31961;52.416;-0.732;2023-04-06T06:31:05;100219.86;;;6.07;100.00
46241;BME280;31961;52.416;-0.732;2023-04-06T06:33:32;100221.02;;;6.04;100.00
46241;BME280;31961;52.416;-0.732;2023-04-06T06:35:59;100229.57;;;5.72;100.00
46241;BME280;31961;52.416;-0.732;2023-04-06T06:38:26;100234.36;;;5.84;100.00
46241;BME280;31961;52.416;-0.732;2023-04-06T06:40:53;100231.15;;;6.19;100.00
46241;BME280;31961;52.416;-0.732;2023-04-06T06:43:21;100226.65;;;5.79;100.00
46241;BME280;31961;52.416;-0.732;2023-04-06T06:45:48;100225.54;;;6.18;100.00
46241;BME280;31961;52.416;-0.732;2023-04-06T06:48:15;100229.82;;;5.03;100.00
46241;BME280;31961;52.416;-0.732;2023-04-06T06:50:42;100229.40;;;6.09;100.00
46241;BME280;31961;52.416;-0.732;2023-04-06T06:53:09;100222.62;;;6.21;100.00
46241;BME280;31961;52.416;-0.732;2023-04-06T06:55:37;100219.66;;;6.83;100.00
46241;BME280;31961;52.416;-0.732;2023-04-06T06:58:04;100217.15;;;6.79;100.00
46241;BME280;31961;52.416;-0.732;2023-04-06T07:00:32;100211.78;;;7.41;100.00
46241;BME280;31961;52.416;-0.732;2023-04-06T07:03:00;100213.60;;;7.39;100.00
46241;BME280;31961;52.416;-0.732;2023-04-06T07:05:27;100222.56;;;6.20;100.00
46241;BME280;31961;52.416;-0.732;2023-04-06T07:07:55;100225.36;;;6.49;100.00
46241;BME280;31961;52.416;-0.732;2023-04-06T07:10:23;100227.33;;;6.82;100.00
46241;BME280;31961;52.416;-0.732;2023-04-06T07:12:50;100224.55;;;7.01;100.00
46241;BME280;31961;52.416;-0.732;2023-04-06T07:15:17;100227.30;;;6.71;100.00
46241;BME280;31961;52.416;-0.732;2023-04-06T07:17:44;100225.07;;;5.68;100.00
46241;BME280;31961;52.416;-0.732;2023-04-06T07:20:12;100230.43;;;6.10;100.00
46241;BME280;31961;52.416;-0.732;2023-04-06T07:22:42;100230.93;;;6.56;100.00
46241;BME280;31961;52.416;-0.732;2023-04-06T07:25:09;100228.93;;;5.77;100.00
46241;BME280;31961;52.416;-0.732;2023-04-06T07:27:37;100231.45;;;5.45;100.00
46241;BME280;31961;52.416;-0.732;2023-04-06T07:30:06;100232.68;;;5.72;100.00
46241;BME280;31961;52.416;-0.732;2023-04-06T07:32:33;100232.80;;;6.35;100.00
46241;BME280;31961;52.416;-0.732;2023-04-06T07:35:01;100233.14;;;6.57;100.00
46241;BME280;31961;52.416;-0.732;2023-04-06T07:37:28;100234.63;;;5.76;100.00
46241;BME280;31961;52.416;-0.732;2023-04-06T07:39:55;100240.18;;;6.05;100.00
46241;BME280;31961;52.416;-0.732;2023-04-06T07:42:23;100237.28;;;5.45;100.00
46241;BME280;31961;52.416;-0.732;2023-04-06T07:44:50;100240.98;;;6.10;100.00
46241;BME280;31961;52.416;-0.732;2023-04-06T07:47:18;100241.78;;;6.33;100.00
46241;BME280;31961;52.416;-0.732;2023-04-06T07:49:45;100239.92;;;6.46;100.00
46241;BME280;31961;52.416;-0.732;2023-04-06T07:52:13;100248.01;;;6.06;100.00
46241;BME280;31961;52.416;-0.732;2023-04-06T07:54:40;100255.67;;;5.08;100.00
46241;BME280;31961;52.416;-0.732;2023-04-06T07:57:07;100254.59;;;5.71;100.00
46241;BME280;31961;52.416;-0.732;2023-04-06T07:59:35;100259.22;;;6.09;100.00
46241;BME280;31961;52.416;-0.732;2023-04-06T08:02:01;100260.57;;;5.69;100.00
46241;BME280;31961;52.416;-0.732;2023-04-06T08:04:29;100263.66;;;5.74;100.00
46241;BME280;31961;52.416;-0.732;2023-04-06T08:06:56;100260.19;;;5.42;100.00
46241;BME280;31961;52.416;-0.732;2023-04-06T08:09:24;100259.19;;;5.74;100.00
46241;BME280;31961;52.416;-0.732;2023-04-06T08:11:51;100264.91;;;6.09;100.00
46241;BME280;31961;52.416;-0.732;2023-04-06T08:14:19;100268.94;;;6.26;100.00
46241;BME280;31961;52.416;-0.732;2023-04-06T08:16:46;100269.29;;;5.80;100.00
46241;BME280;31961;52.416;-0.732;2023-04-06T08:19:14;100275.77;;;5.93;100.00
46241;BME280;31961;52.416;-0.732;2023-04-06T08:21:42;100281.64;;;5.50;100.00
46241;BME280;31961;52.416;-0.732;2023-04-06T08:24:09;100283.78;;;5.16;100.00
46241;BME280;31961;52.416;-0.732;2023-04-06T08:26:36;100284.42;;;4.92;100.00
46241;BME280;31961;52.416;-0.732;2023-04-06T08:29:04;100286.69;;;5.09;100.00
46241;BME280;31961;52.416;-0.732;2023-04-06T08:31:31;100280.15;;;5.64;100.00
46241;BME280;31961;52.416;-0.732;2023-04-06T08:33:58;100276.43;;;6.06;100.00
46241;BME280;31961;52.416;-0.732;2023-04-06T08:36:26;100278.66;;;6.43;100.00
46241;BME280;31961;52.416;-0.732;2023-04-06T08:38:53;100273.73;;;6.08;100.00
46241;BME280;31961;52.416;-0.732;2023-04-06T08:41:20;100280.61;;;5.71;100.00
46241;BME280;31961;52.416;-0.732;2023-04-06T08:43:49;100283.74;;;5.36;100.00
46241;BME280;31961;52.416;-0.732;2023-04-06T08:46:17;100283.88;;;6.02;100.00
46241;BME280;31961;52.416;-0.732;2023-04-06T08:48:45;100285.05;;;5.98;100.00
46241;BME280;31961;52.416;-0.732;2023-04-06T08:51:14;100278.28;;;5.79;100.00
46241;BME280;31961;52.416;-0.732;2023-04-06T08:53:41;100275.57;;;6.03;100.00
46241;BME280;31961;52.416;-0.732;2023-04-06T08:56:09;100279.91;;;5.92;100.00
46241;BME280;31961;52.416;-0.732;2023-04-06T08:58:39;100278.42;;;6.44;100.00
46241;BME280;31961;52.416;-0.732;2023-04-06T09:01:08;100285.64;;;6.04;100.00
46241;BME280;31961;52.416;-0.732;2023-04-06T09:03:38;100285.58;;;6.27;100.00
46241;BME280;31961;52.416;-0.732;2023-04-06T09:06:07;100284.59;;;6.34;100.00
46241;BME280;31961;52.416;-0.732;2023-04-06T09:08:35;100280.60;;;6.43;100.00
46241;BME280;31961;52.416;-0.732;2023-04-06T09:11:03;100283.03;;;6.63;100.00
46241;BME280;31961;52.416;-0.732;2023-04-06T09:13:30;100283.91;;;6.38;100.00
46241;BME280;31961;52.416;-0.732;2023-04-06T09:16:00;100289.33;;;6.00;100.00
46241;BME280;31961;52.416;-0.732;2023-04-06T09:18:29;100283.44;;;6.36;100.00
46241;BME280;31961;52.416;-0.732;2023-04-06T09:20:58;100303.54;;;6.58;100.00
46241;BME280;31961;52.416;-0.732;2023-04-06T09:23:25;100285.77;;;6.32;100.00
46241;BME280;31961;52.416;-0.732;2023-04-06T09:26:06;100288.42;;;6.19;100.00
46241;BME280;31961;52.416;-0.732;2023-04-06T09:28:43;100280.72;;;6.74;100.00
46241;BME280;31961;52.416;-0.732;2023-04-06T09:31:10;100280.41;;;7.15;100.00
46241;BME280;31961;52.416;-0.732;2023-04-06T09:33:38;100281.87;;;6.46;100.00
46241;BME280;31961;52.416;-0.732;2023-04-06T09:36:07;100283.36;;;6.48;100.00
46241;BME280;31961;52.416;-0.732;2023-04-06T09:38:34;100276.73;;;7.00;100.00
46241;BME280;31961;52.416;-0.732;2023-04-06T09:41:01;100277.77;;;6.43;100.00
46241;BME280;31961;52.416;-0.732;2023-04-06T09:43:29;100282.86;;;7.22;100.00
46241;BME280;31961;52.416;-0.732;2023-04-06T09:45:57;100292.01;;;6.85;100.00
46241;BME280;31961;52.416;-0.732;2023-04-06T09:48:25;100279.95;;;7.27;100.00
46241;BME280;31961;52.416;-0.732;2023-04-06T09:50:56;100289.31;;;7.07;100.00
46241;BME280;31961;52.416;-0.732;2023-04-06T09:53:26;100288.33;;;7.14;100.00
46241;BME280;31961;52.416;-0.732;2023-04-06T09:55:57;100294.14;;;6.89;100.00
46241;BME280;31961;52.416;-0.732;2023-04-06T09:58:33;100294.63;;;7.04;100.00
46241;BME280;31961;52.416;-0.732;2023-04-06T10:01:07;100295.95;;;6.77;100.00
46241;BME280;31961;52.416;-0.732;2023-04-06T10:03:44;100294.83;;;6.88;100.00
46241;BME280;31961;52.416;-0.732;2023-04-06T10:06:14;100300.45;;;6.95;100.00
46241;BME280;31961;52.416;-0.732;2023-04-06T10:08:43;100300.35;;;6.39;100.00
46241;BME280;31961;52.416;-0.732;2023-04-06T10:11:12;100311.91;;;6.45;100.00
46241;BME280;31961;52.416;-0.732;2023-04-06T10:13:40;100307.98;;;6.97;100.00
46241;BME280;31961;52.416;-0.732;2023-04-06T10:16:07;100312.58;;;6.71;100.00
46241;BME280;31961;52.416;-0.732;2023-04-06T10:18:35;100326.29;;;6.89;100.00
46241;BME280;31961;52.416;-0.732;2023-04-06T10:21:07;100317.53;;;6.21;100.00
46241;BME280;31961;52.416;-0.732;2023-04-06T10:23:37;100316.43;;;6.75;100.00
46241;BME280;31961;52.416;-0.732;2023-04-06T10:26:12;100320.63;;;6.67;100.00
46241;BME280;31961;52.416;-0.732;2023-04-06T10:28:42;100327.52;;;6.47;100.00
46241;BME280;31961;52.416;-0.732;2023-04-06T10:31:10;100327.86;;;6.63;100.00
46241;BME280;31961;52.416;-0.732;2023-04-06T10:33:37;100325.59;;;6.65;100.00
46241;BME280;31961;52.416;-0.732;2023-04-06T10:36:10;100332.97;;;6.69;100.00
46241;BME280;31961;52.416;-0.732;2023-04-06T10:38:41;100338.63;;;6.64;100.00
46241;BME280;31961;52.416;-0.732;2023-04-06T10:41:10;100339.29;;;6.49;100.00
46241;BME280;31961;52.416;-0.732;2023-04-06T10:43:39;100340.79;;;6.66;100.00
46241;BME280;31961;52.416;-0.732;2023-04-06T10:46:10;100329.82;;;6.53;100.00
46241;BME280;31961;52.416;-0.732;2023-04-06T10:48:39;100331.40;;;6.80;100.00
46241;BME280;31961;52.416;-0.732;2023-04-06T10:51:09;100333.72;;;6.83;100.00
46241;BME280;31961;52.416;-0.732;2023-04-06T10:53:37;100335.32;;;6.93;100.00
46241;BME280;31961;52.416;-0.732;2023-04-06T10:56:09;100336.82;;;6.99;100.00
46241;BME280;31961;52.416;-0.732;2023-04-06T10:58:37;100343.87;;;6.93;100.00
46241;BME280;31961;52.416;-0.732;2023-04-06T11:01:05;100346.40;;;6.95;100.00
46241;BME280;31961;52.416;-0.732;2023-04-06T11:03:42;100344.14;;;6.71;100.00
46241;BME280;31961;52.416;-0.732;2023-04-06T11:06:09;100353.77;;;7.06;100.00
46241;BME280;31961;52.416;-0.732;2023-04-06T11:08:38;100352.23;;;6.69;100.00
46241;BME280;31961;52.416;-0.732;2023-04-06T11:11:07;100343.41;;;7.34;100.00
46241;BME280;31961;52.416;-0.732;2023-04-06T11:13:40;100347.92;;;7.29;100.00
46241;BME280;31961;52.416;-0.732;2023-04-06T11:16:12;100350.03;;;7.14;100.00
46241;BME280;31961;52.416;-0.732;2023-04-06T11:18:47;100350.32;;;7.14;100.00
46241;BME280;31961;52.416;-0.732;2023-04-06T11:21:15;100347.30;;;7.62;100.00
46241;BME280;31961;52.416;-0.732;2023-04-06T11:23:42;100347.02;;;7.43;100.00
46241;BME280;31961;52.416;-0.732;2023-04-06T11:26:11;100351.09;;;7.80;100.00
46241;BME280;31961;52.416;-0.732;2023-04-06T11:28:39;100351.40;;;8.10;100.00
46241;BME280;31961;52.416;-0.732;2023-04-06T11:31:07;100350.53;;;8.01;100.00
46241;BME280;31961;52.416;-0.732;2023-04-06T11:33:36;100342.70;;;8.16;100.00
46241;BME280;31961;52.416;-0.732;2023-04-06T11:36:05;100360.22;;;7.48;100.00
46241;BME280;31961;52.416;-0.732;2023-04-06T11:38:32;100348.79;;;7.95;100.00
46241;BME280;31961;52.416;-0.732;2023-04-06T11:41:01;100352.76;;;7.96;100.00
46241;BME280;31961;52.416;-0.732;2023-04-06T11:43:30;100352.59;;;8.20;100.00
46241;BME280;31961;52.416;-0.732;2023-04-06T11:46:01;100344.95;;;9.10;100.00
46241;BME280;31961;52.416;-0.732;2023-04-06T11:48:30;100347.87;;;9.28;100.00
46241;BME280;31961;52.416;-0.732;2023-04-06T11:50:57;100354.55;;;9.07;100.00
46241;BME280;31961;52.416;-0.732;2023-04-06T11:53:24;100350.82;;;8.98;100.00
46241;BME280;31961;52.416;-0.732;2023-04-06T11:55:52;100352.87;;;8.93;100.00
46241;BME280;31961;52.416;-0.732;2023-04-06T11:58:19;100359.96;;;8.48;100.00
46241;BME280;31961;52.416;-0.732;2023-04-06T12:00:46;100352.92;;;8.95;100.00
46241;BME280;31961;52.416;-0.732;2023-04-06T12:03:14;100363.32;;;8.27;100.00
46241;BME280;31961;52.416;-0.732;2023-04-06T12:05:44;100368.26;;;8.42;100.00
46241;BME280;31961;52.416;-0.732;2023-04-06T12:08:11;100379.36;;;8.20;100.00
46241;BME280;31961;52.416;-0.732;2023-04-06T12:10:38;100375.61;;;7.38;100.00
46241;BME280;31961;52.416;-0.732;2023-04-06T12:13:06;100373.80;;;7.52;100.00
46241;BME280;31961;52.416;-0.732;2023-04-06T12:15:33;100380.10;;;7.88;100.00
46241;BME280;31961;52.416;-0.732;2023-04-06T12:18:02;100379.10;;;7.34;100.00
46241;BME280;31961;52.416;-0.732;2023-04-06T12:20:29;100375.73;;;7.34;100.00
46241;BME280;31961;52.416;-0.732;2023-04-06T12:22:57;100377.72;;;7.69;100.00
46241;BME280;31961;52.416;-0.732;2023-04-06T12:25:24;100381.16;;;7.77;100.00
46241;BME280;31961;52.416;-0.732;2023-04-06T12:27:52;100391.19;;;7.91;100.00
46241;BME280;31961;52.416;-0.732;2023-04-06T12:30:20;100389.92;;;8.43;100.00
46241;BME280;31961;52.416;-0.732;2023-04-06T12:32:47;100391.08;;;8.59;100.00
46241;BME280;31961;52.416;-0.732;2023-04-06T12:35:15;100391.52;;;8.88;100.00
46241;BME280;31961;52.416;-0.732;2023-04-06T12:37:42;100395.37;;;8.42;100.00
46241;BME280;31961;52.416;-0.732;2023-04-06T12:40:10;100402.02;;;8.12;100.00
46241;BME280;31961;52.416;-0.732;2023-04-06T12:42:39;100392.87;;;8.82;100.00